LIBF

Details ICAO LIBF (FOG)
Name Foggia Gino Lisa
Region Italy
Timezone Europe/Rome (UTC+2.0)
Plans Departing 34
Arriving 30
Stats Elevation 265 ft / 81 m (AMSL)
Location 41.433617° 15.534615°
Runways 1
Magnetic Variation 3.601° E
Sunrise 2018-05-27 03:30:56 UTC / 2018-05-27 05:30:56 Local
Sunset 2018-05-27 18:21:58 UTC / 2018-05-27 20:21:58 Local
Advertisement - Login to hide

Runways

ID Width Length Bearing (true) Bearing (mag) Surface Threshold Offset Overrun Length
15 148 ft / 45 m 4,540 ft / 1,384 m 156.64° 153.04° Concrete 0 ft / 0 m 0 ft / 0 m
33 148 ft / 45 m 4,540 ft / 1,384 m 336.64° 333.04° Concrete 0 ft / 0 m 0 ft / 0 m

Map

Weather


0- 5 10 15 20 25 30 35+ Temperature / ° C

Clouds and Precipitation
Forecast for 2018-05-27 12:00 UTC. Updated 3 minutes ago

Ground ~20,000 ft ~40,000 ft Winds

METAR

LIBF 270850Z 28005KT CAVOK 27/13 Q1019

TAF

Not found

Frequencies

Tower 120.10 MHz FOGGIA INFO
Approach 118.85 MHz AMENDOLA APP
Warning: Do not use this data for real-world aviation or navigation. No guarantee of current accuracy is given.